Time;durP1;ratioP1;P1;durP2;ratioP2;P2;SDS_P1;SDS_P2;PMS_P1;PMS_P2;Temp;Humidity;BMP_temperature;BMP_pressure;BME280_temperature;BME280_humidity;BME280_pressure;Samples;Min_cycle;Max_cycle;Signal;HPM_P1;HPM_P2
2022/09/01 00:01:51;;;;;;;5.93;3.05;;;;;;;;;;5050850;28;20048;-75
2022/09/01 00:04:19;;;;;;;12.10;3.50;;;;;;;;;;5053766;28;20462;-75
2022/09/01 00:06:46;;;;;;;4.22;3.05;;;;;;;;;;5049715;28;20056;-75
2022/09/01 00:09:14;;;;;;;7.63;2.88;;;;;;;;;;5059285;28;20504;-75
2022/09/01 00:11:41;;;;;;;7.78;3.13;;;;;;;;;;5050658;28;20436;-75
2022/09/01 00:14:08;;;;;;;5.90;2.67;;;;;;;;;;5067519;28;20049;-76
2022/09/01 00:16:34;;;;;;;5.05;2.80;;;;;;;;;;5050380;28;20452;-75
2022/09/01 00:19:01;;;;;;;7.32;3.03;;;;;;;;;;5051755;28;20040;-75
2022/09/01 00:21:30;;;;;;;7.45;2.70;;;;;;;;;;5050277;28;20059;-76
2022/09/01 00:23:56;;;;;;;4.75;2.47;;;;;;;;;;5049981;28;20037;-75
2022/09/01 00:26:22;;;;;;;5.40;3.08;;;;;;;;;;5049957;28;20037;-75
2022/09/01 00:28:49;;;;;;;4.93;2.80;;;;;;;;;;5032558;28;20053;-75
2022/09/01 00:31:15;;;;;;;7.68;3.22;;;;;;;;;;5050397;28;20036;-75
2022/09/01 00:33:42;;;;;;;5.68;3.30;;;;;;;;;;5033384;28;20450;-75
2022/09/01 00:36:08;;;;;;;5.10;2.50;;;;;;;;;;5052876;28;20095;-75
2022/09/01 00:38:34;;;;;;;7.60;2.80;;;;;;;;;;5053468;28;20045;-75
2022/09/01 00:41:01;;;;;;;4.07;2.60;;;;;;;;;;5054768;28;20068;-75
2022/09/01 00:43:43;;;;;;;6.78;2.38;;;;;;;;;;5020737;28;20506;-75
2022/09/01 00:46:11;;;;;;;5.75;2.53;;;;;;;;;;5054163;28;20490;-75
2022/09/01 00:48:38;;;;;;;5.10;2.58;;;;;;;;;;5036885;28;20044;-75
2022/09/01 00:51:05;;;;;;;9.48;2.80;;;;;;;;;;5037655;28;20047;-75
2022/09/01 00:53:32;;;;;;;7.35;3.05;;;;;;;;;;5053399;28;20106;-75
2022/09/01 00:55:58;;;;;;;6.18;2.40;;;;;;;;;;5053372;28;20060;-74
2022/09/01 00:58:25;;;;;;;4.60;2.50;;;;;;;;;;5053635;28;20110;-75
2022/09/01 01:00:52;;;;;;;4.65;2.70;;;;;;;;;;5053297;28;20071;-75
2022/09/01 01:03:19;;;;;;;6.65;2.58;;;;;;;;;;5052229;28;20041;-75
2022/09/01 01:05:53;;;;;;;3.85;2.78;;;;;;;;;;5052985;28;20041;-75
2022/09/01 01:08:32;;;;;;;6.38;2.92;;;;;;;;;;5036990;28;20090;-75
2022/09/01 01:10:59;;;;;;;5.95;2.53;;;;;;;;;;5053090;28;20036;-75
2022/09/01 01:13:26;;;;;;;4.15;2.50;;;;;;;;;;5054383;28;20037;-75
2022/09/01 01:15:52;;;;;;;6.25;2.72;;;;;;;;;;5052537;28;20040;-75
2022/09/01 01:18:18;;;;;;;5.88;2.40;;;;;;;;;;5047053;28;20087;-75
2022/09/01 01:23:47;;;;;;;6.18;2.15;;;;;;;;;;5009505;28;20042;-75
2022/09/01 01:26:13;;;;;;;4.22;2.30;;;;;;;;;;5036223;28;20060;-75
2022/09/01 01:28:40;;;;;;;3.08;2.08;;;;;;;;;;5052312;28;20051;-75
2022/09/01 01:31:17;;;;;;;4.53;2.22;;;;;;;;;;5052794;28;20033;-75
2022/09/01 01:33:45;;;;;;;5.35;2.33;;;;;;;;;;5052475;28;20052;-75
2022/09/01 01:36:14;;;;;;;5.47;2.33;;;;;;;;;;5052494;28;20067;-75
2022/09/01 01:38:42;;;;;;;4.65;2.10;;;;;;;;;;5052615;28;20056;-75
2022/09/01 01:41:08;;;;;;;3.95;2.20;;;;;;;;;;5036553;28;20508;-75
2022/09/01 01:43:36;;;;;;;3.95;2.10;;;;;;;;;;5052010;28;20041;-75
2022/09/01 01:46:04;;;;;;;4.53;2.22;;;;;;;;;;5052073;28;20055;-74
2022/09/01 01:48:33;;;;;;;4.90;2.10;;;;;;;;;;5069316;28;20053;-75
2022/09/01 01:51:00;;;;;;;3.22;2.22;;;;;;;;;;5052118;28;20037;-75
2022/09/01 01:53:26;;;;;;;5.60;2.38;;;;;;;;;;5051506;28;20125;-74
2022/09/01 01:55:53;;;;;;;4.25;2.20;;;;;;;;;;5051815;28;20037;-75
2022/09/01 01:58:20;;;;;;;4.43;2.60;;;;;;;;;;5058694;28;20045;-75
2022/09/01 02:00:51;;;;;;;4.35;2.20;;;;;;;;;;5051930;28;20090;-75
2022/09/01 02:03:20;;;;;;;4.68;1.98;;;;;;;;;;5050794;28;20119;-75
2022/09/01 02:05:47;;;;;;;4.90;2.40;;;;;;;;;;5038398;28;20084;-75
2022/09/01 02:08:20;;;;;;;7.53;2.35;;;;;;;;;;5056775;28;20569;-75
2022/09/01 02:10:48;;;;;;;4.82;2.10;;;;;;;;;;5037021;28;20490;-75
2022/09/01 02:13:16;;;;;;;3.90;2.10;;;;;;;;;;5069459;28;20037;-75
2022/09/01 02:15:44;;;;;;;5.75;2.28;;;;;;;;;;5067055;28;20125;-75
2022/09/01 02:18:13;;;;;;;4.03;2.20;;;;;;;;;;5052143;28;20053;-75
2022/09/01 02:20:39;;;;;;;3.60;2.20;;;;;;;;;;5068978;28;20123;-75
2022/09/01 02:23:10;;;;;;;3.78;2.30;;;;;;;;;;5051992;28;20044;-75
2022/09/01 02:25:42;;;;;;;3.55;1.98;;;;;;;;;;5051664;28;20049;-75
2022/09/01 02:28:14;;;;;;;5.63;2.28;;;;;;;;;;5048192;28;20533;-75
2022/09/01 02:30:41;;;;;;;4.95;2.30;;;;;;;;;;5052232;28;20114;-75
2022/09/01 02:33:08;;;;;;;3.03;2.10;;;;;;;;;;5035072;28;20029;-75
2022/09/01 02:35:36;;;;;;;5.10;2.40;;;;;;;;;;5035656;28;20080;-75
2022/09/01 02:38:03;;;;;;;3.53;2.20;;;;;;;;;;5051010;28;20052;-75
2022/09/01 02:40:30;;;;;;;5.20;2.17;;;;;;;;;;5052150;28;20046;-75
2022/09/01 02:42:58;;;;;;;3.45;2.30;;;;;;;;;;5051746;28;20041;-75
2022/09/01 02:45:24;;;;;;;4.13;2.20;;;;;;;;;;5051810;28;20052;-74
2022/09/01 02:47:52;;;;;;;4.68;2.30;;;;;;;;;;5034211;28;20047;-75
2022/09/01 02:50:18;;;;;;;5.82;2.10;;;;;;;;;;5051991;28;20045;-75
2022/09/01 02:52:48;;;;;;;4.03;2.58;;;;;;;;;;5051563;28;20056;-75
2022/09/01 02:55:18;;;;;;;4.40;2.00;;;;;;;;;;5051464;28;20123;-74
2022/09/01 02:57:47;;;;;;;5.50;2.30;;;;;;;;;;5050857;28;20041;-75
2022/09/01 03:00:21;;;;;;;3.85;2.33;;;;;;;;;;5050587;28;20167;-75
2022/09/01 03:02:51;;;;;;;5.10;2.42;;;;;;;;;;5066161;28;20154;-74
2022/09/01 03:05:24;;;;;;;3.25;2.10;;;;;;;;;;5051118;28;20040;-75
2022/09/01 03:07:55;;;;;;;6.18;2.15;;;;;;;;;;5050861;28;20517;-74
2022/09/01 03:10:23;;;;;;;4.95;2.45;;;;;;;;;;5058419;28;20041;-75
2022/09/01 03:12:49;;;;;;;3.78;2.22;;;;;;;;;;5051243;28;20120;-75
2022/09/01 03:15:15;;;;;;;5.65;2.42;;;;;;;;;;5050690;28;20086;-75
2022/09/01 03:17:41;;;;;;;3.55;2.25;;;;;;;;;;5051340;28;20049;-75
2022/09/01 03:20:07;;;;;;;3.50;2.13;;;;;;;;;;5051466;28;20378;-75
2022/09/01 03:22:33;;;;;;;4.93;2.20;;;;;;;;;;5050852;28;20095;-74
2022/09/01 03:24:59;;;;;;;4.05;1.90;;;;;;;;;;5050529;28;20072;-74
2022/09/01 03:27:25;;;;;;;3.92;2.50;;;;;;;;;;5034132;28;20048;-74
2022/09/01 03:29:51;;;;;;;3.70;2.10;;;;;;;;;;5050406;28;20044;-75
2022/09/01 03:32:18;;;;;;;5.35;2.38;;;;;;;;;;5050954;28;20049;-75
2022/09/01 03:34:44;;;;;;;3.40;2.15;;;;;;;;;;5050896;28;20045;-75
2022/09/01 03:37:11;;;;;;;4.28;2.10;;;;;;;;;;5050547;28;20049;-75
2022/09/01 03:39:37;;;;;;;3.00;2.05;;;;;;;;;;5050803;28;20048;-75
2022/09/01 03:42:04;;;;;;;4.00;2.20;;;;;;;;;;5067044;28;20040;-75
2022/09/01 03:44:39;;;;;;;4.05;1.92;;;;;;;;;;5034210;28;20037;-75
2022/09/01 03:47:09;;;;;;;4.30;2.33;;;;;;;;;;5050561;28;20393;-74
2022/09/01 03:49:38;;;;;;;4.18;1.95;;;;;;;;;;5060142;28;20045;-74
2022/09/01 03:52:07;;;;;;;2.75;2.00;;;;;;;;;;5050239;28;20401;-75
2022/09/01 03:54:34;;;;;;;4.05;2.22;;;;;;;;;;5050485;28;20080;-74
2022/09/01 03:57:00;;;;;;;3.78;2.20;;;;;;;;;;5050577;28;20137;-75
2022/09/01 03:59:27;;;;;;;4.63;2.20;;;;;;;;;;5050536;28;20131;-75
2022/09/01 04:01:53;;;;;;;4.97;2.13;;;;;;;;;;5047378;28;20047;-75
2022/09/01 04:04:20;;;;;;;5.57;2.38;;;;;;;;;;5048063;28;20041;-76
2022/09/01 04:06:46;;;;;;;4.85;2.35;;;;;;;;;;5027517;28;20054;-75
2022/09/01 04:09:13;;;;;;;6.82;2.45;;;;;;;;;;5049712;28;20524;-75
2022/09/01 04:11:40;;;;;;;5.53;2.50;;;;;;;;;;5035429;28;20064;-75
2022/09/01 04:14:06;;;;;;;4.75;2.10;;;;;;;;;;5052918;28;20045;-75
2022/09/01 04:19:24;;;;;;;4.05;2.33;;;;;;;;;;5053300;28;20044;-75
2022/09/01 04:21:50;;;;;;;3.08;2.00;;;;;;;;;;5052305;28;20037;-76
2022/09/01 04:24:22;;;;;;;4.03;2.33;;;;;;;;;;5050648;28;20044;-75
2022/09/01 04:26:48;;;;;;;4.85;2.45;;;;;;;;;;5052045;28;20037;-75
2022/09/01 04:29:18;;;;;;;5.05;2.40;;;;;;;;;;5050615;28;20375;-76
2022/09/01 04:31:44;;;;;;;5.13;2.40;;;;;;;;;;5051957;28;20036;-75
2022/09/01 04:34:12;;;;;;;4.50;2.40;;;;;;;;;;5049027;28;20048;-75
2022/09/01 04:36:40;;;;;;;6.13;2.17;;;;;;;;;;5047147;28;20119;-75
2022/09/01 04:39:11;;;;;;;3.60;2.33;;;;;;;;;;5045442;28;20059;-75
2022/09/01 04:41:38;;;;;;;4.30;2.55;;;;;;;;;;5045998;28;20045;-75
2022/09/01 04:44:05;;;;;;;3.53;2.38;;;;;;;;;;5046713;28;20128;-75
2022/09/01 04:46:34;;;;;;;5.68;2.53;;;;;;;;;;5049752;28;20048;-75
2022/09/01 04:49:06;;;;;;;4.60;2.30;;;;;;;;;;5047932;28;20048;-76
2022/09/01 04:51:34;;;;;;;5.18;2.50;;;;;;;;;;5049046;28;20111;-75
2022/09/01 04:54:01;;;;;;;3.95;2.20;;;;;;;;;;5048468;28;20494;-75
2022/09/01 04:56:29;;;;;;;3.75;2.42;;;;;;;;;;5043004;28;20045;-75
2022/09/01 04:58:55;;;;;;;3.05;2.30;;;;;;;;;;5042872;28;20482;-75
2022/09/01 05:01:23;;;;;;;3.83;2.35;;;;;;;;;;5046901;28;20048;-76
2022/09/01 05:03:55;;;;;;;4.18;2.45;;;;;;;;;;5052695;28;20460;-75
2022/09/01 05:06:21;;;;;;;5.05;2.35;;;;;;;;;;5063623;28;20045;-76
2022/09/01 05:08:48;;;;;;;3.88;2.40;;;;;;;;;;5051663;28;20037;-76
2022/09/01 05:11:17;;;;;;;3.95;2.22;;;;;;;;;;5051736;28;20041;-76
2022/09/01 05:13:45;;;;;;;5.68;2.40;;;;;;;;;;5037100;28;20389;-76
2022/09/01 05:16:13;;;;;;;4.00;2.10;;;;;;;;;;5052736;28;20068;-76
2022/09/01 05:18:43;;;;;;;3.33;2.20;;;;;;;;;;5052890;28;20052;-75
2022/09/01 05:21:16;;;;;;;5.22;2.05;;;;;;;;;;5035299;28;20048;-76
2022/09/01 05:23:46;;;;;;;3.80;2.35;;;;;;;;;;5052497;28;20049;-76
2022/09/01 05:26:15;;;;;;;5.25;2.60;;;;;;;;;;5052513;28;20170;-76
2022/09/01 05:28:42;;;;;;;4.05;2.30;;;;;;;;;;5036522;28;20500;-75
2022/09/01 05:31:09;;;;;;;4.10;2.28;;;;;;;;;;5052548;28;20033;-75
2022/09/01 05:33:35;;;;;;;4.78;2.05;;;;;;;;;;5036257;28;20044;-75
2022/09/01 05:36:06;;;;;;;3.83;1.90;;;;;;;;;;5052124;28;20098;-75
2022/09/01 05:38:33;;;;;;;3.72;2.00;;;;;;;;;;5049335;28;20509;-75
2022/09/01 05:41:02;;;;;;;3.88;2.13;;;;;;;;;;5045013;28;20036;-76
2022/09/01 05:43:29;;;;;;;3.90;1.80;;;;;;;;;;5048619;28;20041;-76
2022/09/01 05:45:56;;;;;;;4.53;1.85;;;;;;;;;;5046494;28;20116;-76
2022/09/01 05:48:22;;;;;;;3.85;1.90;;;;;;;;;;5048082;28;20032;-76
2022/09/01 05:50:49;;;;;;;4.30;1.77;;;;;;;;;;5051807;28;20075;-76
2022/09/01 05:53:16;;;;;;;4.47;1.95;;;;;;;;;;5045532;28;20094;-76
2022/09/01 05:55:47;;;;;;;4.70;1.50;;;;;;;;;;5049121;28;20048;-76
2022/09/01 05:58:16;;;;;;;3.05;1.60;;;;;;;;;;5052167;28;20501;-76
2022/09/01 06:00:42;;;;;;;3.40;1.50;;;;;;;;;;5052700;28;20106;-76
2022/09/01 06:03:10;;;;;;;3.47;1.60;;;;;;;;;;5051428;28;20044;-76
2022/09/01 06:05:36;;;;;;;3.45;1.60;;;;;;;;;;5019463;28;20049;-76
2022/09/01 06:08:04;;;;;;;4.32;1.80;;;;;;;;;;5052124;28;20037;-76
2022/09/01 06:10:30;;;;;;;2.45;1.40;;;;;;;;;;5068858;28;20493;-76
2022/09/01 06:13:01;;;;;;;5.93;1.20;;;;;;;;;;5052310;28;20493;-76
2022/09/01 06:15:29;;;;;;;3.15;1.50;;;;;;;;;;5051836;28;20113;-76
2022/09/01 06:17:56;;;;;;;2.53;1.50;;;;;;;;;;5053093;28;20508;-76
2022/09/01 06:20:22;;;;;;;5.45;1.27;;;;;;;;;;5051878;28;20045;-76
2022/09/01 06:22:48;;;;;;;3.13;1.40;;;;;;;;;;5035309;28;20517;-76
2022/09/01 06:25:17;;;;;;;2.78;1.33;;;;;;;;;;5046101;28;20493;-77
2022/09/01 06:27:43;;;;;;;3.83;1.42;;;;;;;;;;5050398;28;20462;-77
2022/09/01 06:30:15;;;;;;;3.05;1.30;;;;;;;;;;5050925;28;20494;-77
2022/09/01 06:32:44;;;;;;;2.83;1.45;;;;;;;;;;5049296;28;20047;-77
2022/09/01 06:35:14;;;;;;;3.03;1.48;;;;;;;;;;5051176;28;20041;-77
2022/09/01 06:37:42;;;;;;;2.60;1.40;;;;;;;;;;5032647;28;20055;-77
2022/09/01 06:40:15;;;;;;;2.33;1.30;;;;;;;;;;5050221;28;20049;-77
2022/09/01 06:42:50;;;;;;;2.65;1.20;;;;;;;;;;5048933;28;20107;-77
2022/09/01 06:45:17;;;;;;;3.30;1.73;;;;;;;;;;5049754;28;20449;-77
2022/09/01 06:47:44;;;;;;;3.55;1.30;;;;;;;;;;5049055;28;20501;-76
2022/09/01 06:50:13;;;;;;;2.20;1.35;;;;;;;;;;5049617;28;20503;-77
2022/09/01 06:52:41;;;;;;;2.78;1.27;;;;;;;;;;5049067;28;20056;-77
2022/09/01 06:55:08;;;;;;;3.20;1.38;;;;;;;;;;5049651;28;20064;-77
2022/09/01 06:57:34;;;;;;;3.15;1.20;;;;;;;;;;5049604;28;20040;-77
2022/09/01 07:00:11;;;;;;;2.25;1.30;;;;;;;;;;5040465;28;20470;-78
2022/09/01 07:02:38;;;;;;;5.57;1.52;;;;;;;;;;5052870;28;20486;-80
2022/09/01 07:05:06;;;;;;;5.25;1.40;;;;;;;;;;5055146;28;20049;-80
2022/09/01 07:07:33;;;;;;;3.08;1.30;;;;;;;;;;5043164;28;20199;-80
2022/09/01 07:09:59;;;;;;;3.70;1.27;;;;;;;;;;5046108;28;20051;-80
2022/09/01 07:12:25;;;;;;;3.90;1.40;;;;;;;;;;5034620;28;20124;-81
2022/09/01 07:14:52;;;;;;;3.90;1.52;;;;;;;;;;5051471;28;20049;-80
2022/09/01 07:17:19;;;;;;;2.45;1.10;;;;;;;;;;5033441;28;20482;-81
2022/09/01 07:19:46;;;;;;;2.70;1.20;;;;;;;;;;5051831;28;20053;-81
2022/09/01 07:22:13;;;;;;;4.57;1.48;;;;;;;;;;5051722;28;20398;-81
2022/09/01 07:24:39;;;;;;;3.40;1.40;;;;;;;;;;5051379;28;20045;-78
2022/09/01 07:27:05;;;;;;;2.97;1.33;;;;;;;;;;5050898;28;20095;-77
2022/09/01 07:29:31;;;;;;;3.40;1.20;;;;;;;;;;5051042;28;20044;-78
2022/09/01 07:31:58;;;;;;;2.33;1.30;;;;;;;;;;5034635;28;20390;-78
2022/09/01 07:34:25;;;;;;;2.75;1.13;;;;;;;;;;5051259;28;20049;-80
2022/09/01 07:36:55;;;;;;;2.55;1.15;;;;;;;;;;5052162;28;20068;-80
2022/09/01 07:39:21;;;;;;;4.28;1.30;;;;;;;;;;5050447;28;20049;-79
2022/09/01 07:41:47;;;;;;;2.53;1.15;;;;;;;;;;5050883;28;20131;-79
2022/09/01 07:44:13;;;;;;;4.88;1.20;;;;;;;;;;5050630;28;20041;-79
2022/09/01 07:46:41;;;;;;;4.75;1.27;;;;;;;;;;5050872;28;20079;-80
2022/09/01 07:49:07;;;;;;;4.97;1.17;;;;;;;;;;5050614;28;20041;-80
2022/09/01 07:51:34;;;;;;;1.92;1.10;;;;;;;;;;5050512;28;20138;-80
2022/09/01 07:54:01;;;;;;;3.47;1.10;;;;;;;;;;5051017;28;20057;-80
2022/09/01 07:56:29;;;;;;;4.68;1.20;;;;;;;;;;5050534;28;20080;-80
2022/09/01 07:58:56;;;;;;;2.67;1.05;;;;;;;;;;5034390;28;20509;-81
2022/09/01 08:01:24;;;;;;;3.83;1.10;;;;;;;;;;5030556;28;20500;-80
2022/09/01 08:03:52;;;;;;;3.20;1.10;;;;;;;;;;5037206;28;20402;-81
2022/09/01 08:06:37;;;;;;;3.22;1.05;;;;;;;;;;5036461;28;20033;-80
2022/09/01 08:09:05;;;;;;;;;;;;;;;;;;5050053;28;20041;-81
2022/09/01 08:11:31;;;;;;;5.00;1.23;;;;;;;;;;5052019;28;19923;-79
2022/09/01 08:13:58;;;;;;;4.07;1.00;;;;;;;;;;5053231;28;20044;-79
2022/09/01 08:16:24;;;;;;;3.70;1.20;;;;;;;;;;5034593;28;20036;-78
2022/09/01 08:18:51;;;;;;;3.05;1.30;;;;;;;;;;5036202;28;20045;-80
2022/09/01 08:21:18;;;;;;;3.63;1.02;;;;;;;;;;5034297;28;20044;-80
2022/09/01 08:23:44;;;;;;;2.60;1.10;;;;;;;;;;5050261;28;20045;-80
2022/09/01 08:26:12;;;;;;;2.20;0.90;;;;;;;;;;5050653;28;20041;-80
2022/09/01 08:28:39;;;;;;;3.80;0.90;;;;;;;;;;5033578;28;20371;-81
2022/09/01 08:31:09;;;;;;;3.17;0.90;;;;;;;;;;5050463;28;20037;-81
2022/09/01 08:33:36;;;;;;;1.92;1.00;;;;;;;;;;5050288;28;20045;-81
2022/09/01 08:36:02;;;;;;;4.03;0.90;;;;;;;;;;5050688;28;20029;-81
2022/09/01 08:38:28;;;;;;;2.47;0.90;;;;;;;;;;5050072;28;20037;-81
2022/09/01 08:40:55;;;;;;;2.47;1.15;;;;;;;;;;5034098;28;20499;-81
2022/09/01 08:43:26;;;;;;;57.47;3.70;;;;;;;;;;5050454;28;20044;-82
2022/09/01 08:46:03;;;;;;;1.98;0.80;;;;;;;;;;5033731;28;20041;-81
2022/09/01 08:48:29;;;;;;;1.42;0.82;;;;;;;;;;5051690;28;20075;-82
2022/09/01 08:51:00;;;;;;;2.05;0.93;;;;;;;;;;5050315;28;20171;-82
2022/09/01 08:53:28;;;;;;;1.77;0.80;;;;;;;;;;5050072;28;20049;-83
2022/09/01 08:55:56;;;;;;;3.22;0.90;;;;;;;;;;5050198;28;20048;-82
2022/09/01 08:58:22;;;;;;;2.92;0.93;;;;;;;;;;5054224;28;20068;-82
2022/09/01 09:00:54;;;;;;;3.45;0.90;;;;;;;;;;5020684;28;20049;-82
2022/09/01 09:03:20;;;;;;;3.30;0.80;;;;;;;;;;5054175;28;20124;-82
2022/09/01 09:06:10;;;;;;;2.83;0.80;;;;;;;;;;5052592;28;20049;-82
2022/09/01 09:08:50;;;;;;;2.00;0.80;;;;;;;;;;5061992;28;20116;-82
2022/09/01 09:11:22;;;;;;;2.92;0.80;;;;;;;;;;5042601;28;20398;-82
2022/09/01 09:13:54;;;;;;;1.77;0.73;;;;;;;;;;5051772;28;20120;-82
2022/09/01 09:16:20;;;;;;;2.33;0.80;;;;;;;;;;5053852;28;20594;-82
2022/09/01 09:18:55;;;;;;;2.60;1.00;;;;;;;;;;5042417;28;20069;-82
2022/09/01 09:21:26;;;;;;;5.10;0.85;;;;;;;;;;5045041;28;20033;-83
2022/09/01 09:24:00;;;;;;;3.05;0.80;;;;;;;;;;5038154;28;20489;-82
2022/09/01 09:26:26;;;;;;;1.90;0.90;;;;;;;;;;5053571;28;20397;-82
2022/09/01 09:28:53;;;;;;;3.42;0.80;;;;;;;;;;5036877;28;20053;-80
2022/09/01 09:31:26;;;;;;;2.92;0.80;;;;;;;;;;5037064;28;20055;-78
2022/09/01 09:33:52;;;;;;;2.30;0.70;;;;;;;;;;5036456;28;20044;-83
2022/09/01 09:36:19;;;;;;;2.72;0.80;;;;;;;;;;5042135;28;20037;-83
2022/09/01 09:38:45;;;;;;;2.67;0.73;;;;;;;;;;5052967;28;20041;-83
2022/09/01 09:41:14;;;;;;;3.88;0.60;;;;;;;;;;5053030;28;20043;-84
2022/09/01 09:43:48;;;;;;;2.95;0.75;;;;;;;;;;5050246;28;20041;-82
2022/09/01 09:46:25;;;;;;;2.13;0.70;;;;;;;;;;5050218;28;20041;-84
2022/09/01 09:49:10;;;;;;;5.25;0.77;;;;;;;;;;5049279;28;20128;-85
2022/09/01 09:51:40;;;;;;;3.42;0.85;;;;;;;;;;5050772;28;20045;-84
2022/09/01 09:54:36;;;;;;;1.98;0.63;;;;;;;;;;5052998;28;20067;-84
2022/09/01 09:57:02;;;;;;;;;;;;;;;;;;5034804;28;20045;-83
2022/09/01 09:59:30;;;;;;;1.55;0.65;;;;;;;;;;5040013;28;19923;-82
2022/09/01 10:02:00;;;;;;;2.40;0.70;;;;;;;;;;5034477;28;20041;-81
2022/09/01 10:04:34;;;;;;;4.20;0.70;;;;;;;;;;5028061;28;20042;-81
2022/09/01 10:07:00;;;;;;;2.20;0.75;;;;;;;;;;5051104;28;20036;-80
2022/09/01 10:09:26;;;;;;;2.10;0.75;;;;;;;;;;5018239;28;20068;-80
2022/09/01 10:11:56;;;;;;;2.88;0.73;;;;;;;;;;5043875;28;20533;-81
2022/09/01 10:14:24;;;;;;;2.90;0.70;;;;;;;;;;5043220;28;20033;-79
2022/09/01 10:16:54;;;;;;;1.33;0.63;;;;;;;;;;5044708;28;20041;-80
2022/09/01 10:19:22;;;;;;;1.65;0.70;;;;;;;;;;5048316;28;20056;-78
2022/09/01 10:21:49;;;;;;;1.30;0.50;;;;;;;;;;5038459;28;20486;-80
2022/09/01 10:24:18;;;;;;;1.55;0.80;;;;;;;;;;5046069;28;20120;-79
2022/09/01 10:26:46;;;;;;;2.38;0.70;;;;;;;;;;5045795;28;20040;-80
2022/09/01 10:29:33;;;;;;;2.25;0.63;;;;;;;;;;5050138;28;20045;-80
2022/09/01 10:32:01;;;;;;;5.32;1.00;;;;;;;;;;5034189;28;20037;-81
2022/09/01 10:34:29;;;;;;;1.38;0.60;;;;;;;;;;5045735;28;20550;-80
2022/09/01 10:36:57;;;;;;;1.98;0.70;;;;;;;;;;5033126;28;20047;-79
2022/09/01 10:39:23;;;;;;;2.95;0.80;;;;;;;;;;5051807;28;20394;-80
2022/09/01 10:41:50;;;;;;;3.00;0.70;;;;;;;;;;5042559;28;20462;-80
2022/09/01 10:44:22;;;;;;;2.40;0.80;;;;;;;;;;5051966;28;20494;-80
2022/09/01 10:46:49;;;;;;;1.55;0.70;;;;;;;;;;5041502;28;20033;-81
2022/09/01 10:49:39;;;;;;;1.50;0.60;;;;;;;;;;5017467;28;20068;-81
2022/09/01 10:52:06;;;;;;;2.83;0.63;;;;;;;;;;5027887;28;20050;-80
2022/09/01 10:54:38;;;;;;;2.40;0.90;;;;;;;;;;5050906;28;20040;-80
2022/09/01 10:57:23;;;;;;;3.58;0.60;;;;;;;;;;5052004;28;20037;-79
2022/09/01 10:59:49;;;;;;;1.58;0.80;;;;;;;;;;5032916;28;20041;-80
2022/09/01 11:02:17;;;;;;;1.70;0.60;;;;;;;;;;5039638;28;20067;-79
2022/09/01 11:04:46;;;;;;;2.88;0.80;;;;;;;;;;5051625;28;20123;-79
2022/09/01 11:07:18;;;;;;;1.27;0.70;;;;;;;;;;5051570;28;20037;-80
2022/09/01 11:09:49;;;;;;;2.60;0.65;;;;;;;;;;5051667;28;20068;-81
2022/09/01 11:12:22;;;;;;;2.33;0.75;;;;;;;;;;5037736;28;20033;-81
2022/09/01 11:14:49;;;;;;;3.25;0.80;;;;;;;;;;5035085;28;20439;-78
2022/09/01 11:17:25;;;;;;;2.40;0.50;;;;;;;;;;5051271;28;20097;-79
2022/09/01 11:19:57;;;;;;;2.20;0.70;;;;;;;;;;5050863;28;20062;-79
2022/09/01 11:22:25;;;;;;;1.83;0.75;;;;;;;;;;5051183;28;20105;-81
2022/09/01 11:25:06;;;;;;;2.45;0.70;;;;;;;;;;5034507;28;20048;-78
2022/09/01 11:27:47;;;;;;;1.48;0.70;;;;;;;;;;5050759;28;20094;-79
2022/09/01 11:30:31;;;;;;;2.47;0.80;;;;;;;;;;5068231;28;20048;-79
2022/09/01 11:33:23;;;;;;;5.25;0.80;;;;;;;;;;5039333;28;20116;-77
2022/09/01 11:35:56;;;;;;;5.50;0.80;;;;;;;;;;5012425;28;20041;-79
2022/09/01 11:38:23;;;;;;;2.03;0.80;;;;;;;;;;5035094;28;20432;-79
2022/09/01 11:40:54;;;;;;;10.23;1.00;;;;;;;;;;5051062;28;20037;-81
2022/09/01 11:43:23;;;;;;;8.65;1.00;;;;;;;;;;5051675;28;20041;-79
2022/09/01 11:46:02;;;;;;;4.43;0.95;;;;;;;;;;5051219;28;20083;-80
2022/09/01 11:48:29;;;;;;;2.33;0.70;;;;;;;;;;5051443;28;20040;-79
2022/09/01 11:51:00;;;;;;;2.67;0.70;;;;;;;;;;5032110;28;20037;-80
2022/09/01 11:53:27;;;;;;;3.63;0.73;;;;;;;;;;5040495;28;20057;-80
2022/09/01 11:55:55;;;;;;;3.28;0.80;;;;;;;;;;5049476;28;20041;-79
2022/09/01 11:58:29;;;;;;;4.43;0.70;;;;;;;;;;5042030;28;20805;-80
2022/09/01 12:00:58;;;;;;;1.10;0.60;;;;;;;;;;5042398;28;20049;-80
2022/09/01 12:03:25;;;;;;;2.03;0.70;;;;;;;;;;5048194;28;20041;-80
2022/09/01 12:05:58;;;;;;;3.13;0.77;;;;;;;;;;5050214;28;20049;-80
2022/09/01 12:08:26;;;;;;;1.88;0.65;;;;;;;;;;5034492;28;20073;-81
2022/09/01 12:11:03;;;;;;;2.13;0.60;;;;;;;;;;5050573;28;20048;-81
2022/09/01 12:13:29;;;;;;;1.77;0.90;;;;;;;;;;5051212;28;20044;-81
2022/09/01 12:16:00;;;;;;;1.35;0.60;;;;;;;;;;5052609;28;20516;-79
2022/09/01 12:18:27;;;;;;;1.80;0.70;;;;;;;;;;5034042;28;20048;-80
2022/09/01 12:20:56;;;;;;;4.20;0.70;;;;;;;;;;5050384;28;20119;-80
2022/09/01 12:23:30;;;;;;;4.18;0.80;;;;;;;;;;5049554;28;20054;-79
2022/09/01 12:25:58;;;;;;;1.95;0.70;;;;;;;;;;5030043;28;20041;-80
2022/09/01 12:28:25;;;;;;;2.25;0.77;;;;;;;;;;5025946;28;20486;-80
2022/09/01 12:30:52;;;;;;;3.35;0.90;;;;;;;;;;5048735;28;20683;-79
2022/09/01 12:33:19;;;;;;;1.23;0.75;;;;;;;;;;5035925;28;20086;-80
2022/09/01 12:35:45;;;;;;;1.25;0.60;;;;;;;;;;5034223;28;20152;-80
2022/09/01 12:38:25;;;;;;;2.28;0.70;;;;;;;;;;5049736;28;20068;-80
2022/09/01 12:40:52;;;;;;;2.00;0.60;;;;;;;;;;5064332;28;20041;-80
2022/09/01 12:43:33;;;;;;;3.83;0.90;;;;;;;;;;5050180;28;20050;-79
2022/09/01 12:46:00;;;;;;;2.38;0.70;;;;;;;;;;5065685;28;20483;-79
2022/09/01 12:48:36;;;;;;;1.02;0.52;;;;;;;;;;5044574;28;20064;-79
2022/09/01 12:51:17;;;;;;;3.05;0.70;;;;;;;;;;5051483;28;20116;-78
2022/09/01 12:53:51;;;;;;;4.10;0.75;;;;;;;;;;5046096;28;20113;-78
2022/09/01 12:56:29;;;;;;;2.05;0.77;;;;;;;;;;5044096;28;20029;-78
2022/09/01 12:59:04;;;;;;;3.55;0.80;;;;;;;;;;5058356;28;20494;-79
2022/09/01 13:01:32;;;;;;;2.08;0.60;;;;;;;;;;5059331;28;20080;-79
2022/09/01 13:04:13;;;;;;;3.17;0.60;;;;;;;;;;5053558;28;20047;-79
2022/09/01 13:06:39;;;;;;;2.72;0.70;;;;;;;;;;5053941;28;20128;-79
2022/09/01 13:09:05;;;;;;;1.92;0.75;;;;;;;;;;5053331;28;20036;-79
2022/09/01 13:11:32;;;;;;;2.60;0.70;;;;;;;;;;5054478;28;20063;-78
2022/09/01 13:13:58;;;;;;;2.28;0.80;;;;;;;;;;5020390;28;20500;-78
2022/09/01 13:16:24;;;;;;;3.08;0.70;;;;;;;;;;5037096;28;20178;-79
2022/09/01 13:18:50;;;;;;;1.70;0.70;;;;;;;;;;5034879;28;20093;-79
2022/09/01 13:21:16;;;;;;;1.63;0.60;;;;;;;;;;5052824;28;20032;-79
2022/09/01 13:23:42;;;;;;;2.78;1.08;;;;;;;;;;5017801;28;20124;-79
2022/09/01 13:26:10;;;;;;;1.20;0.60;;;;;;;;;;5052646;28;20037;-80
2022/09/01 13:28:36;;;;;;;2.03;0.80;;;;;;;;;;5052668;28;20123;-79
2022/09/01 13:31:06;;;;;;;1.77;0.63;;;;;;;;;;5035706;28;20029;-79
2022/09/01 13:33:33;;;;;;;6.43;1.13;;;;;;;;;;5051883;28;20094;-80
2022/09/01 13:36:00;;;;;;;2.75;0.80;;;;;;;;;;5053060;28;20040;-78
2022/09/01 13:38:26;;;;;;;2.72;0.70;;;;;;;;;;5052376;28;20118;-76
2022/09/01 13:40:52;;;;;;;2.47;0.80;;;;;;;;;;5051348;28;20045;-78
2022/09/01 13:43:20;;;;;;;5.03;1.00;;;;;;;;;;5051113;28;20037;-77
2022/09/01 13:45:46;;;;;;;1.90;0.75;;;;;;;;;;5052193;28;20091;-77
2022/09/01 13:48:13;;;;;;;2.05;0.73;;;;;;;;;;5052696;28;20044;-78
2022/09/01 13:50:39;;;;;;;4.45;0.60;;;;;;;;;;5052504;28;20098;-77
2022/09/01 13:53:05;;;;;;;3.50;0.80;;;;;;;;;;5050001;28;20087;-77
2022/09/01 13:55:33;;;;;;;1.48;0.60;;;;;;;;;;5035135;28;20076;-77
2022/09/01 13:58:00;;;;;;;2.72;0.52;;;;;;;;;;5050707;28;20055;-77
2022/09/01 14:00:28;;;;;;;7.50;0.90;;;;;;;;;;5051497;28;20516;-77
2022/09/01 14:02:55;;;;;;;1.95;0.75;;;;;;;;;;5052752;28;20040;-78
2022/09/01 14:05:21;;;;;;;1.83;0.63;;;;;;;;;;5052710;28;20073;-78
2022/09/01 14:07:48;;;;;;;1.27;0.70;;;;;;;;;;5053072;28;20049;-78
2022/09/01 14:10:14;;;;;;;1.60;0.70;;;;;;;;;;5052218;28;20051;-79
2022/09/01 14:12:41;;;;;;;3.05;0.70;;;;;;;;;;5053168;28;20599;-78
2022/09/01 14:15:08;;;;;;;0.98;0.60;;;;;;;;;;5050940;28;20045;-75
2022/09/01 14:17:34;;;;;;;5.03;0.80;;;;;;;;;;5052904;28;20052;-75
2022/09/01 14:20:00;;;;;;;3.03;0.70;;;;;;;;;;5052029;28;20209;-78
2022/09/01 14:22:27;;;;;;;2.05;0.60;;;;;;;;;;5052265;28;20036;-79
2022/09/01 14:24:53;;;;;;;3.85;0.70;;;;;;;;;;5014725;28;20073;-78
2022/09/01 14:27:19;;;;;;;3.13;0.82;;;;;;;;;;5049487;28;20039;-78
2022/09/01 14:29:49;;;;;;;1.70;0.77;;;;;;;;;;5051955;28;20440;-78
2022/09/01 14:32:16;;;;;;;0.80;0.60;;;;;;;;;;5052098;28;20509;-78
2022/09/01 14:34:42;;;;;;;1.65;0.70;;;;;;;;;;5035954;28;20048;-78
2022/09/01 14:37:08;;;;;;;3.38;0.70;;;;;;;;;;5051541;28;20044;-78
2022/09/01 14:39:34;;;;;;;3.58;0.70;;;;;;;;;;5051943;28;20041;-79
2022/09/01 14:42:02;;;;;;;3.85;0.90;;;;;;;;;;5052282;28;20509;-79
2022/09/01 14:44:28;;;;;;;4.07;0.75;;;;;;;;;;5051568;28;20068;-79
2022/09/01 14:46:54;;;;;;;1.92;0.90;;;;;;;;;;5051843;28;20037;-79
2022/09/01 14:49:20;;;;;;;2.05;0.70;;;;;;;;;;5050971;28;20040;-79
2022/09/01 14:51:46;;;;;;;1.60;0.60;;;;;;;;;;5051963;28;20501;-78
2022/09/01 14:54:12;;;;;;;2.15;0.57;;;;;;;;;;5050935;28;20049;-78
2022/09/01 14:56:39;;;;;;;2.60;0.63;;;;;;;;;;5052005;28;20049;-79
2022/09/01 14:59:07;;;;;;;1.98;0.70;;;;;;;;;;5051950;28;20053;-79